sensor_id;sensor_type;location;lat;lon;timestamp;temperature;humidity
64468;DHT22;50853;46.836;16.820;2022-10-16T00:00:39;11.60;95.60
64468;DHT22;50853;46.836;16.820;2022-10-16T00:03:06;11.60;95.90
64468;DHT22;50853;46.836;16.820;2022-10-16T00:05:33;11.70;96.10
64468;DHT22;50853;46.836;16.820;2022-10-16T00:08:03;11.70;96.00
64468;DHT22;50853;46.836;16.820;2022-10-16T00:10:29;11.70;96.00
64468;DHT22;50853;46.836;16.820;2022-10-16T00:12:55;11.70;96.80
64468;DHT22;50853;46.836;16.820;2022-10-16T00:15:21;11.70;96.50
64468;DHT22;50853;46.836;16.820;2022-10-16T00:17:47;11.60;96.00
64468;DHT22;50853;46.836;16.820;2022-10-16T00:20:12;11.50;94.80
64468;DHT22;50853;46.836;16.820;2022-10-16T00:22:38;11.40;94.20
64468;DHT22;50853;46.836;16.820;2022-10-16T00:25:05;11.40;93.70
64468;DHT22;50853;46.836;16.820;2022-10-16T00:27:32;11.30;94.30
64468;DHT22;50853;46.836;16.820;2022-10-16T00:29:58;11.20;95.10
64468;DHT22;50853;46.836;16.820;2022-10-16T00:32:24;11.20;96.50
64468;DHT22;50853;46.836;16.820;2022-10-16T00:34:50;11.30;96.90
64468;DHT22;50853;46.836;16.820;2022-10-16T00:37:16;11.30;96.80
64468;DHT22;50853;46.836;16.820;2022-10-16T00:39:42;11.20;95.90
64468;DHT22;50853;46.836;16.820;2022-10-16T00:42:15;11.20;95.30
64468;DHT22;50853;46.836;16.820;2022-10-16T00:44:58;11.20;95.00
64468;DHT22;50853;46.836;16.820;2022-10-16T00:47:36;11.10;94.80
64468;DHT22;50853;46.836;16.820;2022-10-16T00:50:18;11.10;94.80
64468;DHT22;50853;46.836;16.820;2022-10-16T00:52:48;11.00;94.40
64468;DHT22;50853;46.836;16.820;2022-10-16T00:55:16;11.00;94.40
64468;DHT22;50853;46.836;16.820;2022-10-16T00:57:43;10.90;95.30
64468;DHT22;50853;46.836;16.820;2022-10-16T01:00:15;11.00;95.60
64468;DHT22;50853;46.836;16.820;2022-10-16T01:02:41;11.00;96.30
64468;DHT22;50853;46.836;16.820;2022-10-16T01:05:08;11.10;97.20
64468;DHT22;50853;46.836;16.820;2022-10-16T01:10:35;11.20;98.60
64468;DHT22;50853;46.836;16.820;2022-10-16T01:13:07;11.10;98.40
64468;DHT22;50853;46.836;16.820;2022-10-16T01:15:42;11.10;97.80
64468;DHT22;50853;46.836;16.820;2022-10-16T01:21:10;11.00;97.40
64468;DHT22;50853;46.836;16.820;2022-10-16T01:24:01;11.00;97.90
64468;DHT22;50853;46.836;16.820;2022-10-16T01:29:16;10.90;97.30
64468;DHT22;50853;46.836;16.820;2022-10-16T01:31:49;10.90;97.00
64468;DHT22;50853;46.836;16.820;2022-10-16T01:34:25;10.90;96.70
64468;DHT22;50853;46.836;16.820;2022-10-16T01:37:02;10.90;97.40
64468;DHT22;50853;46.836;16.820;2022-10-16T01:39:32;10.90;97.50
64468;DHT22;50853;46.836;16.820;2022-10-16T01:42:04;10.80;97.20
64468;DHT22;50853;46.836;16.820;2022-10-16T01:44:35;10.80;96.20
64468;DHT22;50853;46.836;16.820;2022-10-16T01:47:02;10.60;96.60
64468;DHT22;50853;46.836;16.820;2022-10-16T01:49:33;10.60;96.80
64468;DHT22;50853;46.836;16.820;2022-10-16T01:52:02;10.60;96.20
64468;DHT22;50853;46.836;16.820;2022-10-16T01:54:31;10.60;96.70
64468;DHT22;50853;46.836;16.820;2022-10-16T01:56:59;10.60;96.90
64468;DHT22;50853;46.836;16.820;2022-10-16T01:59:29;10.60;97.10
64468;DHT22;50853;46.836;16.820;2022-10-16T02:02:00;10.60;98.40
64468;DHT22;50853;46.836;16.820;2022-10-16T02:04:31;10.60;98.30
64468;DHT22;50853;46.836;16.820;2022-10-16T02:06:59;10.60;98.10
64468;DHT22;50853;46.836;16.820;2022-10-16T02:09:25;10.50;97.80
64468;DHT22;50853;46.836;16.820;2022-10-16T02:11:54;10.50;97.10
64468;DHT22;50853;46.836;16.820;2022-10-16T02:14:21;10.40;96.90
64468;DHT22;50853;46.836;16.820;2022-10-16T02:16:50;10.40;96.80
64468;DHT22;50853;46.836;16.820;2022-10-16T02:19:17;10.40;97.80
64468;DHT22;50853;46.836;16.820;2022-10-16T02:21:53;10.50;99.40
64468;DHT22;50853;46.836;16.820;2022-10-16T02:24:42;10.50;99.80
64468;DHT22;50853;46.836;16.820;2022-10-16T02:30:25;10.50;99.90
64468;DHT22;50853;46.836;16.820;2022-10-16T02:32:53;10.50;99.90
64468;DHT22;50853;46.836;16.820;2022-10-16T02:35:21;10.40;99.60
64468;DHT22;50853;46.836;16.820;2022-10-16T02:37:50;10.30;99.00
64468;DHT22;50853;46.836;16.820;2022-10-16T02:40:17;10.40;99.30
64468;DHT22;50853;46.836;16.820;2022-10-16T02:42:43;10.40;99.60
64468;DHT22;50853;46.836;16.820;2022-10-16T02:45:11;10.40;99.90
64468;DHT22;50853;46.836;16.820;2022-10-16T02:47:37;10.30;99.40
64468;DHT22;50853;46.836;16.820;2022-10-16T02:50:04;10.30;99.40
64468;DHT22;50853;46.836;16.820;2022-10-16T02:52:29;10.40;99.90
64468;DHT22;50853;46.836;16.820;2022-10-16T02:54:55;10.40;99.90
64468;DHT22;50853;46.836;16.820;2022-10-16T02:57:21;10.40;99.90
64468;DHT22;50853;46.836;16.820;2022-10-16T02:59:47;10.50;99.90
64468;DHT22;50853;46.836;16.820;2022-10-16T03:02:13;10.50;99.90
64468;DHT22;50853;46.836;16.820;2022-10-16T03:04:39;10.50;99.90
64468;DHT22;50853;46.836;16.820;2022-10-16T03:07:06;10.60;99.90
64468;DHT22;50853;46.836;16.820;2022-10-16T03:09:32;10.60;99.90
64468;DHT22;50853;46.836;16.820;2022-10-16T03:11:57;10.60;99.90
64468;DHT22;50853;46.836;16.820;2022-10-16T03:14:23;10.60;99.90
64468;DHT22;50853;46.836;16.820;2022-10-16T03:16:49;10.60;99.90
64468;DHT22;50853;46.836;16.820;2022-10-16T03:19:16;10.40;99.90
64468;DHT22;50853;46.836;16.820;2022-10-16T03:21:43;10.30;99.90
64468;DHT22;50853;46.836;16.820;2022-10-16T03:24:09;10.30;99.90
64468;DHT22;50853;46.836;16.820;2022-10-16T03:26:35;10.30;99.90
64468;DHT22;50853;46.836;16.820;2022-10-16T03:29:01;10.30;99.90
64468;DHT22;50853;46.836;16.820;2022-10-16T03:31:29;10.30;99.90
64468;DHT22;50853;46.836;16.820;2022-10-16T03:33:55;10.30;99.90
64468;DHT22;50853;46.836;16.820;2022-10-16T03:36:21;10.30;99.90
64468;DHT22;50853;46.836;16.820;2022-10-16T03:38:47;10.30;99.90
64468;DHT22;50853;46.836;16.820;2022-10-16T03:41:13;10.20;99.90
64468;DHT22;50853;46.836;16.820;2022-10-16T03:43:39;10.30;99.90
64468;DHT22;50853;46.836;16.820;2022-10-16T03:46:05;10.30;99.90
64468;DHT22;50853;46.836;16.820;2022-10-16T03:48:31;10.30;99.90
64468;DHT22;50853;46.836;16.820;2022-10-16T03:50:58;10.30;99.90
64468;DHT22;50853;46.836;16.820;2022-10-16T03:53:24;10.30;99.90
64468;DHT22;50853;46.836;16.820;2022-10-16T03:55:50;10.20;99.90
64468;DHT22;50853;46.836;16.820;2022-10-16T03:58:16;10.20;99.90
64468;DHT22;50853;46.836;16.820;2022-10-16T04:00:45;10.10;99.90
64468;DHT22;50853;46.836;16.820;2022-10-16T04:03:13;10.10;99.90
64468;DHT22;50853;46.836;16.820;2022-10-16T04:05:39;10.00;99.90
64468;DHT22;50853;46.836;16.820;2022-10-16T04:08:05;10.00;99.90
64468;DHT22;50853;46.836;16.820;2022-10-16T04:10:31;10.00;99.90
64468;DHT22;50853;46.836;16.820;2022-10-16T04:12:56;9.90;99.90
64468;DHT22;50853;46.836;16.820;2022-10-16T04:15:23;9.90;99.90
64468;DHT22;50853;46.836;16.820;2022-10-16T04:17:49;10.00;99.90
64468;DHT22;50853;46.836;16.820;2022-10-16T04:20:15;10.00;99.90
64468;DHT22;50853;46.836;16.820;2022-10-16T04:22:41;10.00;99.90
64468;DHT22;50853;46.836;16.820;2022-10-16T04:25:07;10.00;99.90
64468;DHT22;50853;46.836;16.820;2022-10-16T04:27:33;9.90;99.90
64468;DHT22;50853;46.836;16.820;2022-10-16T04:29:59;9.90;99.90
64468;DHT22;50853;46.836;16.820;2022-10-16T04:32:26;9.80;99.90
64468;DHT22;50853;46.836;16.820;2022-10-16T04:34:53;9.80;99.90
64468;DHT22;50853;46.836;16.820;2022-10-16T04:37:22;9.80;99.80
64468;DHT22;50853;46.836;16.820;2022-10-16T04:39:48;9.70;99.50
64468;DHT22;50853;46.836;16.820;2022-10-16T04:42:14;9.70;99.60
64468;DHT22;50853;46.836;16.820;2022-10-16T04:44:40;9.60;99.90
64468;DHT22;50853;46.836;16.820;2022-10-16T04:47:06;9.60;99.60
64468;DHT22;50853;46.836;16.820;2022-10-16T04:49:31;9.60;99.70
64468;DHT22;50853;46.836;16.820;2022-10-16T04:51:57;9.60;99.90
64468;DHT22;50853;46.836;16.820;2022-10-16T04:54:23;9.60;99.90
64468;DHT22;50853;46.836;16.820;2022-10-16T04:56:49;9.70;99.90
64468;DHT22;50853;46.836;16.820;2022-10-16T04:59:18;9.70;99.90
64468;DHT22;50853;46.836;16.820;2022-10-16T05:01:45;9.80;99.90
64468;DHT22;50853;46.836;16.820;2022-10-16T05:04:11;9.70;99.90
64468;DHT22;50853;46.836;16.820;2022-10-16T05:06:37;9.70;99.90
64468;DHT22;50853;46.836;16.820;2022-10-16T05:09:05;9.60;99.90
64468;DHT22;50853;46.836;16.820;2022-10-16T05:11:31;9.60;99.90
64468;DHT22;50853;46.836;16.820;2022-10-16T05:13:57;9.60;99.90
64468;DHT22;50853;46.836;16.820;2022-10-16T05:16:23;9.60;99.90
64468;DHT22;50853;46.836;16.820;2022-10-16T05:18:48;9.60;99.90
64468;DHT22;50853;46.836;16.820;2022-10-16T05:21:15;9.80;99.90
64468;DHT22;50853;46.836;16.820;2022-10-16T05:23:41;9.70;99.90
64468;DHT22;50853;46.836;16.820;2022-10-16T05:26:06;9.70;99.90
64468;DHT22;50853;46.836;16.820;2022-10-16T05:28:33;9.70;99.90
64468;DHT22;50853;46.836;16.820;2022-10-16T05:30:59;9.70;99.90
64468;DHT22;50853;46.836;16.820;2022-10-16T05:33:25;9.80;99.90
64468;DHT22;50853;46.836;16.820;2022-10-16T05:35:51;9.70;99.90
64468;DHT22;50853;46.836;16.820;2022-10-16T05:38:18;9.70;99.90
64468;DHT22;50853;46.836;16.820;2022-10-16T05:40:51;9.70;99.90
64468;DHT22;50853;46.836;16.820;2022-10-16T05:43:19;9.80;99.90
64468;DHT22;50853;46.836;16.820;2022-10-16T05:45:53;10.10;99.90
64468;DHT22;50853;46.836;16.820;2022-10-16T05:48:20;10.20;99.90
64468;DHT22;50853;46.836;16.820;2022-10-16T05:50:46;10.20;99.90
64468;DHT22;50853;46.836;16.820;2022-10-16T05:53:11;10.40;99.90
64468;DHT22;50853;46.836;16.820;2022-10-16T05:55:37;10.50;99.90
64468;DHT22;50853;46.836;16.820;2022-10-16T05:58:03;10.60;99.90
64468;DHT22;50853;46.836;16.820;2022-10-16T06:00:29;10.80;99.90
64468;DHT22;50853;46.836;16.820;2022-10-16T06:02:55;11.00;99.90
64468;DHT22;50853;46.836;16.820;2022-10-16T06:05:20;11.10;99.90
64468;DHT22;50853;46.836;16.820;2022-10-16T06:07:46;11.20;99.90
64468;DHT22;50853;46.836;16.820;2022-10-16T06:10:12;11.30;99.90
64468;DHT22;50853;46.836;16.820;2022-10-16T06:12:38;11.40;99.90
64468;DHT22;50853;46.836;16.820;2022-10-16T06:15:04;11.50;99.90
64468;DHT22;50853;46.836;16.820;2022-10-16T06:17:30;11.60;99.90
64468;DHT22;50853;46.836;16.820;2022-10-16T06:19:56;11.70;99.90
64468;DHT22;50853;46.836;16.820;2022-10-16T06:22:22;11.80;99.90
64468;DHT22;50853;46.836;16.820;2022-10-16T06:24:47;12.00;99.90
64468;DHT22;50853;46.836;16.820;2022-10-16T06:27:14;12.10;99.90
64468;DHT22;50853;46.836;16.820;2022-10-16T06:29:40;12.30;98.50
64468;DHT22;50853;46.836;16.820;2022-10-16T06:32:06;12.30;96.50
64468;DHT22;50853;46.836;16.820;2022-10-16T06:34:32;12.40;95.60
64468;DHT22;50853;46.836;16.820;2022-10-16T06:36:58;12.60;96.00
64468;DHT22;50853;46.836;16.820;2022-10-16T06:39:24;12.70;95.40
64468;DHT22;50853;46.836;16.820;2022-10-16T06:41:50;12.90;95.00
64468;DHT22;50853;46.836;16.820;2022-10-16T06:44:15;13.00;95.00
64468;DHT22;50853;46.836;16.820;2022-10-16T06:46:41;13.30;95.60
64468;DHT22;50853;46.836;16.820;2022-10-16T06:49:07;13.50;94.40
64468;DHT22;50853;46.836;16.820;2022-10-16T06:51:33;13.60;94.10
64468;DHT22;50853;46.836;16.820;2022-10-16T06:54:01;13.70;94.30
64468;DHT22;50853;46.836;16.820;2022-10-16T06:56:28;13.90;93.10
64468;DHT22;50853;46.836;16.820;2022-10-16T06:58:56;14.00;92.50
64468;DHT22;50853;46.836;16.820;2022-10-16T07:01:24;14.20;92.70
64468;DHT22;50853;46.836;16.820;2022-10-16T07:03:50;14.30;92.10
64468;DHT22;50853;46.836;16.820;2022-10-16T07:06:19;14.50;91.60
64468;DHT22;50853;46.836;16.820;2022-10-16T07:08:46;14.60;91.10
64468;DHT22;50853;46.836;16.820;2022-10-16T07:11:14;14.80;91.40
64468;DHT22;50853;46.836;16.820;2022-10-16T07:13:41;14.90;90.70
64468;DHT22;50853;46.836;16.820;2022-10-16T07:16:08;15.00;89.60
64468;DHT22;50853;46.836;16.820;2022-10-16T07:18:34;15.20;89.50
64468;DHT22;50853;46.836;16.820;2022-10-16T07:21:20;15.30;88.00
64468;DHT22;50853;46.836;16.820;2022-10-16T07:23:54;15.50;88.50
64468;DHT22;50853;46.836;16.820;2022-10-16T07:26:21;15.70;87.30
64468;DHT22;50853;46.836;16.820;2022-10-16T07:28:48;15.90;87.20
64468;DHT22;50853;46.836;16.820;2022-10-16T07:31:16;16.10;88.00
64468;DHT22;50853;46.836;16.820;2022-10-16T07:33:43;16.20;88.50
64468;DHT22;50853;46.836;16.820;2022-10-16T07:36:11;16.40;88.00
64468;DHT22;50853;46.836;16.820;2022-10-16T07:38:38;16.50;84.90
64468;DHT22;50853;46.836;16.820;2022-10-16T07:41:06;16.70;86.00
64468;DHT22;50853;46.836;16.820;2022-10-16T07:43:33;16.80;86.10
64468;DHT22;50853;46.836;16.820;2022-10-16T07:45:59;17.00;84.00
64468;DHT22;50853;46.836;16.820;2022-10-16T07:48:31;17.10;84.80
64468;DHT22;50853;46.836;16.820;2022-10-16T07:51:05;17.40;84.60
64468;DHT22;50853;46.836;16.820;2022-10-16T07:53:31;17.60;83.10
64468;DHT22;50853;46.836;16.820;2022-10-16T07:56:02;17.60;79.90
64468;DHT22;50853;46.836;16.820;2022-10-16T07:58:29;17.70;81.00
64468;DHT22;50853;46.836;16.820;2022-10-16T08:00:56;17.60;80.40
64468;DHT22;50853;46.836;16.820;2022-10-16T08:03:23;17.90;79.70
64468;DHT22;50853;46.836;16.820;2022-10-16T08:05:49;18.20;79.70
64468;DHT22;50853;46.836;16.820;2022-10-16T08:08:17;18.20;75.30
64468;DHT22;50853;46.836;16.820;2022-10-16T08:10:43;18.40;78.60
64468;DHT22;50853;46.836;16.820;2022-10-16T08:13:09;18.50;78.10
64468;DHT22;50853;46.836;16.820;2022-10-16T08:15:38;18.60;76.00
64468;DHT22;50853;46.836;16.820;2022-10-16T08:18:05;18.70;79.20
64468;DHT22;50853;46.836;16.820;2022-10-16T08:20:32;18.80;77.00
64468;DHT22;50853;46.836;16.820;2022-10-16T08:22:59;19.00;76.20
64468;DHT22;50853;46.836;16.820;2022-10-16T08:25:26;19.10;74.70
64468;DHT22;50853;46.836;16.820;2022-10-16T08:27:51;19.10;75.00
64468;DHT22;50853;46.836;16.820;2022-10-16T08:30:19;19.20;76.00
64468;DHT22;50853;46.836;16.820;2022-10-16T08:32:45;19.50;74.40
64468;DHT22;50853;46.836;16.820;2022-10-16T08:35:12;19.50;73.00
64468;DHT22;50853;46.836;16.820;2022-10-16T08:37:39;19.50;74.40
64468;DHT22;50853;46.836;16.820;2022-10-16T08:40:11;19.70;73.10
64468;DHT22;50853;46.836;16.820;2022-10-16T08:45:37;20.00;73.60
64468;DHT22;50853;46.836;16.820;2022-10-16T08:50:58;20.30;72.50
64468;DHT22;50853;46.836;16.820;2022-10-16T08:56:17;20.60;70.80
64468;DHT22;50853;46.836;16.820;2022-10-16T08:58:45;20.70;70.50
64468;DHT22;50853;46.836;16.820;2022-10-16T09:01:16;20.70;70.60
64468;DHT22;50853;46.836;16.820;2022-10-16T09:09:27;20.90;68.50
64468;DHT22;50853;46.836;16.820;2022-10-16T09:12:27;20.90;69.80
64468;DHT22;50853;46.836;16.820;2022-10-16T09:15:23;21.20;69.50
64468;DHT22;50853;46.836;16.820;2022-10-16T09:18:09;21.40;71.00
64468;DHT22;50853;46.836;16.820;2022-10-16T09:20:49;21.60;68.80
64468;DHT22;50853;46.836;16.820;2022-10-16T09:23:26;21.50;67.50
64468;DHT22;50853;46.836;16.820;2022-10-16T09:25:53;21.50;68.90
64468;DHT22;50853;46.836;16.820;2022-10-16T09:28:20;21.30;67.40
64468;DHT22;50853;46.836;16.820;2022-10-16T09:30:46;21.30;68.80
64468;DHT22;50853;46.836;16.820;2022-10-16T09:33:14;21.50;69.10
64468;DHT22;50853;46.836;16.820;2022-10-16T09:35:52;21.30;68.10
64468;DHT22;50853;46.836;16.820;2022-10-16T09:38:28;21.70;68.50
64468;DHT22;50853;46.836;16.820;2022-10-16T09:40:55;21.70;67.60
64468;DHT22;50853;46.836;16.820;2022-10-16T09:43:23;21.70;67.70
64468;DHT22;50853;46.836;16.820;2022-10-16T09:48:26;21.80;68.00
64468;DHT22;50853;46.836;16.820;2022-10-16T09:51:02;22.00;66.40
64468;DHT22;50853;46.836;16.820;2022-10-16T09:53:44;21.90;67.30
64468;DHT22;50853;46.836;16.820;2022-10-16T09:56:20;21.70;66.60
64468;DHT22;50853;46.836;16.820;2022-10-16T09:58:54;21.80;66.50
64468;DHT22;50853;46.836;16.820;2022-10-16T10:01:21;21.80;66.40
64468;DHT22;50853;46.836;16.820;2022-10-16T10:03:48;22.00;65.30
64468;DHT22;50853;46.836;16.820;2022-10-16T10:06:21;22.20;65.70
64468;DHT22;50853;46.836;16.820;2022-10-16T10:11:59;22.50;64.60
64468;DHT22;50853;46.836;16.820;2022-10-16T10:14:38;22.70;65.20
64468;DHT22;50853;46.836;16.820;2022-10-16T10:22:40;22.60;64.50
64468;DHT22;50853;46.836;16.820;2022-10-16T10:25:15;22.70;65.00
64468;DHT22;50853;46.836;16.820;2022-10-16T10:28:40;22.80;64.90
64468;DHT22;50853;46.836;16.820;2022-10-16T10:36:38;23.20;65.30
64468;DHT22;50853;46.836;16.820;2022-10-16T10:42:46;23.20;63.40
64468;DHT22;50853;46.836;16.820;2022-10-16T10:45:23;23.10;65.10
64468;DHT22;50853;46.836;16.820;2022-10-16T10:51:01;23.00;65.20
64468;DHT22;50853;46.836;16.820;2022-10-16T10:53:33;23.30;63.70
64468;DHT22;50853;46.836;16.820;2022-10-16T10:57:06;23.50;65.70
64468;DHT22;50853;46.836;16.820;2022-10-16T11:01:59;23.20;64.60
64468;DHT22;50853;46.836;16.820;2022-10-16T11:07:44;23.30;63.70
64468;DHT22;50853;46.836;16.820;2022-10-16T11:10:17;23.20;65.30
64468;DHT22;50853;46.836;16.820;2022-10-16T11:12:47;23.30;63.40
64468;DHT22;50853;46.836;16.820;2022-10-16T11:18:15;23.50;63.60
64468;DHT22;50853;46.836;16.820;2022-10-16T11:20:51;23.60;64.20
64468;DHT22;50853;46.836;16.820;2022-10-16T11:23:28;23.50;62.90
64468;DHT22;50853;46.836;16.820;2022-10-16T11:25:57;23.60;61.80
64468;DHT22;50853;46.836;16.820;2022-10-16T11:28:34;23.50;61.30
64468;DHT22;50853;46.836;16.820;2022-10-16T11:31:08;23.50;63.20
64468;DHT22;50853;46.836;16.820;2022-10-16T11:33:55;23.50;63.10
64468;DHT22;50853;46.836;16.820;2022-10-16T11:36:28;23.30;61.80
64468;DHT22;50853;46.836;16.820;2022-10-16T11:42:04;23.30;57.20
64468;DHT22;50853;46.836;16.820;2022-10-16T11:47:35;23.30;56.90
64468;DHT22;50853;46.836;16.820;2022-10-16T11:50:20;23.10;56.90
64468;DHT22;50853;46.836;16.820;2022-10-16T11:55:42;23.20;58.20
64468;DHT22;50853;46.836;16.820;2022-10-16T11:58:50;23.10;57.90
64468;DHT22;50853;46.836;16.820;2022-10-16T12:01:19;23.00;59.70
64468;DHT22;50853;46.836;16.820;2022-10-16T12:06:46;23.00;56.20
64468;DHT22;50853;46.836;16.820;2022-10-16T12:09:21;22.90;57.60
64468;DHT22;50853;46.836;16.820;2022-10-16T12:11:48;23.00;60.00
64468;DHT22;50853;46.836;16.820;2022-10-16T12:20:01;22.90;59.80
64468;DHT22;50853;46.836;16.820;2022-10-16T12:25:36;22.70;57.60
64468;DHT22;50853;46.836;16.820;2022-10-16T12:28:19;22.80;56.70
64468;DHT22;50853;46.836;16.820;2022-10-16T12:30:57;22.80;56.40
64468;DHT22;50853;46.836;16.820;2022-10-16T12:33:29;22.80;57.30
64468;DHT22;50853;46.836;16.820;2022-10-16T12:35:56;22.80;56.80
64468;DHT22;50853;46.836;16.820;2022-10-16T12:38:36;22.80;56.50
64468;DHT22;50853;46.836;16.820;2022-10-16T12:41:06;22.70;57.60
64468;DHT22;50853;46.836;16.820;2022-10-16T12:43:40;22.80;58.00
64468;DHT22;50853;46.836;16.820;2022-10-16T12:48:41;22.80;57.80
64468;DHT22;50853;46.836;16.820;2022-10-16T12:51:19;22.80;57.50
64468;DHT22;50853;46.836;16.820;2022-10-16T12:53:58;22.60;56.80
64468;DHT22;50853;46.836;16.820;2022-10-16T13:16:42;22.30;58.00
64468;DHT22;50853;46.836;16.820;2022-10-16T13:19:23;22.20;58.00
64468;DHT22;50853;46.836;16.820;2022-10-16T13:28:01;22.00;60.20
64468;DHT22;50853;46.836;16.820;2022-10-16T13:30:29;21.90;58.60
64468;DHT22;50853;46.836;16.820;2022-10-16T13:33:06;21.90;59.10
64468;DHT22;50853;46.836;16.820;2022-10-16T13:35:32;21.80;59.70
64468;DHT22;50853;46.836;16.820;2022-10-16T13:40:36;21.80;60.10
64468;DHT22;50853;46.836;16.820;2022-10-16T13:43:02;21.70;60.30
64468;DHT22;50853;46.836;16.820;2022-10-16T13:45:28;21.60;60.80
64468;DHT22;50853;46.836;16.820;2022-10-16T13:48:09;21.50;61.20
64468;DHT22;50853;46.836;16.820;2022-10-16T13:50:37;21.50;60.70
64468;DHT22;50853;46.836;16.820;2022-10-16T13:53:05;21.40;61.10
64468;DHT22;50853;46.836;16.820;2022-10-16T13:55:31;21.40;61.20
64468;DHT22;50853;46.836;16.820;2022-10-16T13:58:16;21.30;61.20
64468;DHT22;50853;46.836;16.820;2022-10-16T14:01:06;21.20;61.40
64468;DHT22;50853;46.836;16.820;2022-10-16T14:03:39;21.10;61.90
64468;DHT22;50853;46.836;16.820;2022-10-16T14:06:12;21.10;61.50
64468;DHT22;50853;46.836;16.820;2022-10-16T14:08:42;21.10;61.70
64468;DHT22;50853;46.836;16.820;2022-10-16T14:11:09;21.00;62.00
64468;DHT22;50853;46.836;16.820;2022-10-16T14:13:43;20.90;61.90
64468;DHT22;50853;46.836;16.820;2022-10-16T14:16:15;20.80;62.20
64468;DHT22;50853;46.836;16.820;2022-10-16T14:18:46;20.80;62.40
64468;DHT22;50853;46.836;16.820;2022-10-16T14:21:16;20.70;62.80
64468;DHT22;50853;46.836;16.820;2022-10-16T14:23:43;20.60;62.80
64468;DHT22;50853;46.836;16.820;2022-10-16T14:28:38;20.60;63.00
64468;DHT22;50853;46.836;16.820;2022-10-16T14:31:25;20.50;62.80
64468;DHT22;50853;46.836;16.820;2022-10-16T14:33:52;20.50;63.10
64468;DHT22;50853;46.836;16.820;2022-10-16T14:36:18;20.40;63.60
64468;DHT22;50853;46.836;16.820;2022-10-16T14:38:59;20.30;64.20
64468;DHT22;50853;46.836;16.820;2022-10-16T14:41:42;20.30;64.10
64468;DHT22;50853;46.836;16.820;2022-10-16T14:44:12;20.20;64.30
64468;DHT22;50853;46.836;16.820;2022-10-16T14:46:41;20.10;64.30
64468;DHT22;50853;46.836;16.820;2022-10-16T14:51:38;20.00;64.80
64468;DHT22;50853;46.836;16.820;2022-10-16T14:54:08;19.90;65.10
64468;DHT22;50853;46.836;16.820;2022-10-16T14:56:55;19.80;65.00
64468;DHT22;50853;46.836;16.820;2022-10-16T14:59:39;19.80;65.00
64468;DHT22;50853;46.836;16.820;2022-10-16T15:02:28;19.70;65.10
64468;DHT22;50853;46.836;16.820;2022-10-16T15:04:56;19.70;65.50
64468;DHT22;50853;46.836;16.820;2022-10-16T15:07:22;19.60;65.50
64468;DHT22;50853;46.836;16.820;2022-10-16T15:09:48;19.60;65.50
64468;DHT22;50853;46.836;16.820;2022-10-16T15:12:14;19.50;65.80
64468;DHT22;50853;46.836;16.820;2022-10-16T15:14:40;19.50;65.60
64468;DHT22;50853;46.836;16.820;2022-10-16T15:17:11;19.50;65.80
64468;DHT22;50853;46.836;16.820;2022-10-16T15:19:37;19.40;66.10
64468;DHT22;50853;46.836;16.820;2022-10-16T15:22:03;19.40;66.00
64468;DHT22;50853;46.836;16.820;2022-10-16T15:24:29;19.30;66.30
64468;DHT22;50853;46.836;16.820;2022-10-16T15:26:55;19.30;66.20
64468;DHT22;50853;46.836;16.820;2022-10-16T15:29:21;19.30;66.50
64468;DHT22;50853;46.836;16.820;2022-10-16T15:31:47;19.20;66.50
64468;DHT22;50853;46.836;16.820;2022-10-16T15:34:13;19.20;66.90
64468;DHT22;50853;46.836;16.820;2022-10-16T15:36:40;19.10;66.40
64468;DHT22;50853;46.836;16.820;2022-10-16T15:39:19;19.10;66.60
64468;DHT22;50853;46.836;16.820;2022-10-16T15:41:47;19.00;66.40
64468;DHT22;50853;46.836;16.820;2022-10-16T15:44:20;19.00;66.70
64468;DHT22;50853;46.836;16.820;2022-10-16T15:46:48;18.90;66.90
64468;DHT22;50853;46.836;16.820;2022-10-16T15:49:15;18.90;67.10
64468;DHT22;50853;46.836;16.820;2022-10-16T15:51:41;18.90;67.40
64468;DHT22;50853;46.836;16.820;2022-10-16T15:54:08;18.80;67.30
64468;DHT22;50853;46.836;16.820;2022-10-16T15:56:33;18.70;67.20
64468;DHT22;50853;46.836;16.820;2022-10-16T15:59:03;18.70;67.80
64468;DHT22;50853;46.836;16.820;2022-10-16T16:01:33;18.60;67.50
64468;DHT22;50853;46.836;16.820;2022-10-16T16:03:59;18.60;67.80
64468;DHT22;50853;46.836;16.820;2022-10-16T16:06:25;18.50;67.80
64468;DHT22;50853;46.836;16.820;2022-10-16T16:08:52;18.50;68.00
64468;DHT22;50853;46.836;16.820;2022-10-16T16:11:19;18.40;67.90
64468;DHT22;50853;46.836;16.820;2022-10-16T16:13:45;18.40;68.50
64468;DHT22;50853;46.836;16.820;2022-10-16T16:16:13;18.30;68.30
64468;DHT22;50853;46.836;16.820;2022-10-16T16:18:40;18.30;68.60
64468;DHT22;50853;46.836;16.820;2022-10-16T16:21:06;18.20;68.80
64468;DHT22;50853;46.836;16.820;2022-10-16T16:23:32;18.20;68.60
64468;DHT22;50853;46.836;16.820;2022-10-16T16:26:05;18.20;69.00
64468;DHT22;50853;46.836;16.820;2022-10-16T16:28:32;18.10;68.90
64468;DHT22;50853;46.836;16.820;2022-10-16T16:30:58;18.10;69.00
64468;DHT22;50853;46.836;16.820;2022-10-16T16:33:24;18.10;69.10
64468;DHT22;50853;46.836;16.820;2022-10-16T16:35:49;18.00;69.10
64468;DHT22;50853;46.836;16.820;2022-10-16T16:38:15;18.00;69.40
64468;DHT22;50853;46.836;16.820;2022-10-16T16:40:41;18.00;69.50
64468;DHT22;50853;46.836;16.820;2022-10-16T16:43:07;17.90;69.60
64468;DHT22;50853;46.836;16.820;2022-10-16T16:45:36;17.90;69.70
64468;DHT22;50853;46.836;16.820;2022-10-16T16:48:02;17.80;69.80
64468;DHT22;50853;46.836;16.820;2022-10-16T16:50:28;17.80;70.00
64468;DHT22;50853;46.836;16.820;2022-10-16T16:52:54;17.70;70.00
64468;DHT22;50853;46.836;16.820;2022-10-16T16:55:19;17.70;70.20
64468;DHT22;50853;46.836;16.820;2022-10-16T16:57:48;17.70;70.20
64468;DHT22;50853;46.836;16.820;2022-10-16T17:00:14;17.60;70.60
64468;DHT22;50853;46.836;16.820;2022-10-16T17:02:40;17.60;70.30
64468;DHT22;50853;46.836;16.820;2022-10-16T17:05:09;17.50;70.60
64468;DHT22;50853;46.836;16.820;2022-10-16T17:07:35;17.50;70.60
64468;DHT22;50853;46.836;16.820;2022-10-16T17:10:02;17.50;70.40
64468;DHT22;50853;46.836;16.820;2022-10-16T17:12:29;17.40;71.20
64468;DHT22;50853;46.836;16.820;2022-10-16T17:14:55;17.40;71.40
64468;DHT22;50853;46.836;16.820;2022-10-16T17:17:21;17.30;71.00
64468;DHT22;50853;46.836;16.820;2022-10-16T17:19:49;17.30;71.60
64468;DHT22;50853;46.836;16.820;2022-10-16T17:22:15;17.20;71.40
64468;DHT22;50853;46.836;16.820;2022-10-16T17:24:42;17.10;72.20
64468;DHT22;50853;46.836;16.820;2022-10-16T17:27:08;17.10;72.30